Time;durP1;ratioP1;P1;durP2;ratioP2;P2;SDS_P1;SDS_P2;PMS_P1;PMS_P2;Temp;Humidity;BMP_temperature;BMP_pressure;BME280_temperature;BME280_humidity;BME280_pressure;Samples;Min_cycle;Max_cycle;Signal;HPM_P1;HPM_P2
2023/10/13 00:00:40;;;;;;;85.28;42.95;;;;;;;17.27;100.00;101236.75;5025067;28;20144;-76
2023/10/13 00:03:06;;;;;;;115.50;49.28;;;;;;;17.27;100.00;101220.59;5028391;28;20045;-75
2023/10/13 00:05:32;;;;;;;82.22;41.63;;;;;;;17.25;100.00;101228.81;5025666;28;20155;-75
2023/10/13 00:08:02;;;;;;;88.80;43.70;;;;;;;17.19;100.00;101237.44;5022136;28;20038;-75
2023/10/13 00:10:31;;;;;;;82.90;40.20;;;;;;;17.23;100.00;101233.50;5028741;28;20038;-76
2023/10/13 00:13:20;;;;;;;87.05;43.08;;;;;;;17.13;100.00;101218.25;5030991;28;20029;-74
2023/10/13 00:15:57;;;;;;;94.95;45.00;;;;;;;17.20;100.00;101230.19;5020128;28;20172;-75
2023/10/13 00:18:27;;;;;;;86.43;42.97;;;;;;;17.14;100.00;101225.34;5024282;28;20026;-76
2023/10/13 00:20:56;;;;;;;74.78;40.25;;;;;;;17.15;100.00;101232.44;5027249;28;20040;-74
2023/10/13 00:23:23;;;;;;;79.30;42.47;;;;;;;17.18;100.00;101226.78;5020846;28;20053;-74
2023/10/13 00:25:50;;;;;;;85.25;41.42;;;;;;;17.21;100.00;101223.81;5024661;28;20204;-76
2023/10/13 00:28:23;;;;;;;82.55;41.25;;;;;;;17.07;100.00;101225.00;5024108;28;20034;-75
2023/10/13 00:30:59;;;;;;;87.90;42.88;;;;;;;17.14;100.00;101228.88;5033847;28;20932;-75
2023/10/13 00:33:27;;;;;;;74.38;40.45;;;;;;;17.16;100.00;101228.75;5022679;28;20049;-76
2023/10/13 00:35:53;;;;;;;84.47;40.10;;;;;;;17.16;100.00;101215.25;5027332;28;20034;-74
2023/10/13 00:38:19;;;;;;;70.95;38.78;;;;;;;17.23;100.00;101214.63;5023034;28;20033;-75
2023/10/13 00:40:52;;;;;;;83.45;39.60;;;;;;;17.16;100.00;101201.78;5028991;28;20120;-76
2023/10/13 00:45:54;;;;;;;81.47;39.55;;;;;;;17.08;100.00;101197.94;5025794;28;20034;-76
2023/10/13 00:48:34;;;;;;;66.63;34.97;;;;;;;17.22;100.00;101207.53;5027020;28;20041;-75
2023/10/13 00:51:07;;;;;;;70.60;36.63;;;;;;;17.25;100.00;101196.47;5031128;28;21163;-74
2023/10/13 00:53:34;;;;;;;69.05;34.28;;;;;;;17.28;100.00;101193.53;5027519;28;20041;-76
2023/10/13 00:56:06;;;;;;;85.53;37.75;;;;;;;17.25;100.00;101185.69;5027618;28;22218;-76
2023/10/13 00:58:39;;;;;;;71.13;36.00;;;;;;;17.31;100.00;101173.53;5032414;28;20025;-76
2023/10/13 01:01:17;;;;;;;71.85;36.92;;;;;;;17.27;100.00;101178.34;5025169;28;20034;-76
2023/10/13 01:04:02;;;;;;;73.70;37.42;;;;;;;17.31;100.00;101174.38;5054878;28;20065;-77
2023/10/13 01:06:28;;;;;;;60.50;34.45;;;;;;;17.28;100.00;101171.97;5030189;28;20038;-76
2023/10/13 01:09:17;;;;;;;73.88;38.17;;;;;;;17.31;100.00;101170.81;5023203;28;20057;-77
2023/10/13 01:11:53;;;;;;;73.90;38.47;;;;;;;17.29;100.00;101170.13;5028050;28;20030;-76
2023/10/13 01:14:20;;;;;;;79.53;41.63;;;;;;;17.30;100.00;101164.59;5026104;28;20040;-76
2023/10/13 01:16:52;;;;;;;90.00;43.22;;;;;;;17.35;100.00;101164.19;5030642;28;20061;-76
2023/10/13 01:19:19;;;;;;;103.20;46.38;;;;;;;17.34;100.00;101170.56;5027128;28;20034;-76
2023/10/13 01:21:45;;;;;;;91.32;43.03;;;;;;;17.34;100.00;101159.78;5032223;28;20030;-77
2023/10/13 01:24:13;;;;;;;90.10;43.58;;;;;;;17.33;100.00;101150.00;5030207;28;20176;-77
2023/10/13 01:26:39;;;;;;;85.95;42.45;;;;;;;17.24;100.00;101150.78;5029359;28;20167;-75
2023/10/13 01:29:12;;;;;;;74.07;36.58;;;;;;;17.27;100.00;101145.13;5030961;28;20029;-76
2023/10/13 01:31:46;;;;;;;73.72;37.45;;;;;;;17.32;100.00;101145.59;5042770;28;20033;-77
2023/10/13 01:34:21;;;;;;;90.57;42.22;;;;;;;17.24;100.00;101151.66;5019271;28;20120;-76
2023/10/13 01:36:51;;;;;;;79.20;40.25;;;;;;;17.26;100.00;101149.66;5029487;28;20084;-76
2023/10/13 01:39:17;;;;;;;70.00;36.78;;;;;;;17.32;100.00;101137.50;5020592;28;20130;-76
2023/10/13 01:41:43;;;;;;;77.57;39.08;;;;;;;17.30;100.00;101134.94;5053465;28;20121;-76
2023/10/13 01:44:14;;;;;;;71.03;37.10;;;;;;;17.29;100.00;101127.84;5020757;28;20045;-75
2023/10/13 01:46:42;;;;;;;71.97;36.22;;;;;;;17.30;100.00;101126.00;5038301;28;20029;-76
2023/10/13 01:49:08;;;;;;;72.30;39.58;;;;;;;17.34;100.00;101117.50;5000138;28;20034;-76
2023/10/13 01:51:34;;;;;;;80.40;39.67;;;;;;;17.27;100.00;101119.03;5025923;28;20037;-76
2023/10/13 01:54:03;;;;;;;71.80;37.97;;;;;;;17.31;100.00;101104.28;5023976;28;20037;-75
2023/10/13 01:56:31;;;;;;;77.88;39.10;;;;;;;17.25;100.00;101109.38;5028481;28;20095;-76
2023/10/13 01:58:57;;;;;;;85.40;39.58;;;;;;;17.31;100.00;101106.97;5065708;28;20025;-74
2023/10/13 02:01:29;;;;;;;78.07;36.55;;;;;;;17.29;100.00;101100.03;5027823;28;20787;-75
2023/10/13 02:04:06;;;;;;;70.15;36.85;;;;;;;17.23;100.00;101096.03;5014352;28;20051;-76
2023/10/13 02:06:33;;;;;;;62.85;33.70;;;;;;;17.23;100.00;101085.25;5006449;28;20050;-76
2023/10/13 02:09:10;;;;;;;67.22;34.72;;;;;;;17.19;100.00;101085.66;5029226;28;20116;-75
2023/10/13 02:11:39;;;;;;;56.70;29.63;;;;;;;17.18;100.00;101084.81;5027936;28;20037;-76
2023/10/13 02:14:05;;;;;;;64.50;29.92;;;;;;;17.20;100.00;101081.97;5015739;28;20148;-75
2023/10/13 02:16:31;;;;;;;52.20;27.83;;;;;;;17.17;100.00;101077.72;5025629;28;20040;-75
2023/10/13 02:19:03;;;;;;;49.47;27.30;;;;;;;17.09;100.00;101072.97;5026948;28;20885;-75
2023/10/13 02:21:32;;;;;;;49.03;27.05;;;;;;;17.11;100.00;101072.84;5019165;28;20021;-74
2023/10/13 02:24:02;;;;;;;43.22;25.20;;;;;;;17.12;100.00;101071.00;5024220;28;20076;-76
2023/10/13 02:26:31;;;;;;;51.10;25.40;;;;;;;17.15;100.00;101065.34;5031122;28;20034;-75
2023/10/13 02:28:58;;;;;;;56.00;26.83;;;;;;;17.15;100.00;101065.34;5032821;28;20058;-75
2023/10/13 02:31:26;;;;;;;61.05;29.85;;;;;;;17.02;100.00;101063.72;5024511;28;20048;-75
2023/10/13 02:33:53;;;;;;;50.08;28.10;;;;;;;17.10;100.00;101057.66;5045157;28;20038;-75
2023/10/13 02:36:22;;;;;;;39.53;25.23;;;;;;;17.16;100.00;101050.88;5011247;28;20038;-77
2023/10/13 02:38:50;;;;;;;54.95;28.70;;;;;;;17.15;100.00;101049.19;5023339;28;20034;-76
2023/10/13 02:41:26;;;;;;;53.65;28.30;;;;;;;17.11;100.00;101042.34;5023550;28;20158;-78
2023/10/13 02:43:55;;;;;;;53.90;25.42;;;;;;;17.08;100.00;101055.09;5024667;28;20141;-74
2023/10/13 02:46:22;;;;;;;56.47;28.00;;;;;;;17.08;100.00;101047.03;5021008;28;20167;-75
2023/10/13 02:48:57;;;;;;;61.28;30.05;;;;;;;17.09;100.00;101034.41;5024858;28;20036;-76
2023/10/13 02:51:31;;;;;;;58.47;28.50;;;;;;;17.15;100.00;101033.84;5032912;28;20041;-77
2023/10/13 02:54:02;;;;;;;53.97;27.90;;;;;;;17.09;100.00;101031.72;5027545;28;20049;-75
2023/10/13 02:56:29;;;;;;;59.97;29.10;;;;;;;17.17;100.00;101029.19;5012948;28;20034;-76
2023/10/13 02:59:04;;;;;;;59.80;27.17;;;;;;;17.20;100.00;101030.75;5023223;28;20052;-76
2023/10/13 03:01:33;;;;;;;61.90;30.40;;;;;;;17.12;100.00;101023.38;5028262;28;20128;-74
2023/10/13 03:04:01;;;;;;;62.95;30.17;;;;;;;17.12;100.00;101027.88;5026988;28;20104;-76
2023/10/13 03:06:33;;;;;;;62.85;29.95;;;;;;;17.16;100.00;101019.38;5027452;28;20100;-76
2023/10/13 03:09:14;;;;;;;63.70;27.98;;;;;;;17.07;100.00;101023.78;5020485;28;20025;-76
2023/10/13 03:11:49;;;;;;;53.60;28.42;;;;;;;17.15;100.00;101024.91;5020110;28;20112;-76
2023/10/13 03:14:28;;;;;;;52.95;26.38;;;;;;;17.04;100.00;101015.09;5022386;28;20041;-76
2023/10/13 03:17:02;;;;;;;63.22;28.70;;;;;;;17.09;100.00;101007.44;5020361;28;20088;-76
2023/10/13 03:19:32;;;;;;;50.58;25.45;;;;;;;17.09;100.00;101004.75;5023933;28;20078;-76
2023/10/13 03:22:09;;;;;;;62.75;28.52;;;;;;;17.01;100.00;100994.63;5027820;28;20045;-75
2023/10/13 03:24:34;;;;;;;52.78;28.70;;;;;;;17.13;100.00;100991.88;5028152;28;20094;-76
2023/10/13 03:27:09;;;;;;;62.28;32.80;;;;;;;17.10;100.00;100982.22;5015191;28;20108;-77
2023/10/13 03:29:43;;;;;;;49.58;27.15;;;;;;;17.08;100.00;100976.97;5031687;28;20038;-74
2023/10/13 03:32:13;;;;;;;57.30;27.85;;;;;;;17.14;100.00;100970.16;5025686;28;20048;-76
2023/10/13 03:34:54;;;;;;;51.97;24.58;;;;;;;17.10;100.00;100976.81;5028451;28;20045;-76
2023/10/13 03:37:40;;;;;;;54.33;24.87;;;;;;;17.06;100.00;100967.28;5020569;28;20034;-77
2023/10/13 03:43:04;;;;;;;58.63;27.33;;;;;;;17.04;100.00;100966.59;5025024;28;20049;-76
2023/10/13 03:45:46;;;;;;;54.33;25.95;;;;;;;17.11;100.00;100958.81;5021911;28;20050;-75
2023/10/13 03:51:10;;;;;;;53.70;27.30;;;;;;;17.18;100.00;100958.13;5020480;28;20128;-77
2023/10/13 03:53:52;;;;;;;65.65;29.75;;;;;;;17.13;100.00;100952.31;5026958;28;20037;-75
2023/10/13 03:56:27;;;;;;;63.08;30.35;;;;;;;17.18;100.00;100952.75;5019368;28;20034;-75
2023/10/13 03:58:58;;;;;;;76.75;33.47;;;;;;;17.14;100.00;100945.91;5020503;28;20029;-77
2023/10/13 04:01:43;;;;;;;73.68;34.30;;;;;;;17.11;100.00;100934.56;5023993;28;20087;-78
2023/10/13 04:04:29;;;;;;;86.07;34.97;;;;;;;17.15;100.00;100927.91;5022891;28;20045;-76
2023/10/13 04:07:13;;;;;;;76.55;34.70;;;;;;;17.12;100.00;100923.66;5061521;28;20132;-76
2023/10/13 04:17:40;;;;;;;55.80;27.27;;;;;;;17.08;100.00;100915.00;5032641;28;20034;-75
2023/10/13 04:25:35;;;;;;;54.60;25.27;;;;;;;17.15;100.00;100888.34;5017355;28;20058;-77
2023/10/13 04:28:17;;;;;;;44.83;23.58;;;;;;;17.11;100.00;100873.44;5033610;28;20499;-77
2023/10/13 04:30:59;;;;;;;50.78;24.35;;;;;;;17.11;100.00;100848.31;5026471;28;20044;-78
2023/10/13 04:33:35;;;;;;;47.70;23.73;;;;;;;17.02;100.00;100847.34;5032101;28;20080;-76
2023/10/13 04:36:16;;;;;;;46.05;23.60;;;;;;;17.07;100.00;100837.84;5029120;28;20100;-77
2023/10/13 04:39:09;;;;;;;61.55;23.83;;;;;;;17.04;100.00;100830.03;5025033;28;20049;-76
2023/10/13 04:41:57;;;;;;;;;;;;;;;17.06;100.00;100828.03;5030071;28;20037;-77
2023/10/13 04:44:48;;;;;;;58.58;23.38;;;;;;;17.11;100.00;100834.84;5026005;28;19920;-75
2023/10/13 04:47:17;;;;;;;79.30;29.85;;;;;;;17.06;100.00;100840.66;5028392;28;20044;-75
2023/10/13 04:57:31;;;;;;;63.08;30.65;;;;;;;17.09;100.00;100822.38;5028491;28;20057;-76
2023/10/13 05:46:35;;;;;;;65.60;32.78;;;;;;;17.70;100.00;100831.19;5031266;28;20044;-77
2023/10/13 06:29:34;;;;;;;40.35;21.13;;;;;;;17.84;100.00;100780.38;5031726;28;20034;-76
2023/10/13 06:32:01;;;;;;;41.25;20.70;;;;;;;17.88;100.00;100788.19;5040576;28;20096;-77
2023/10/13 06:34:37;;;;;;;36.03;20.15;;;;;;;17.94;100.00;100787.59;5028876;28;20123;-76
2023/10/13 06:39:51;;;;;;;30.38;19.25;;;;;;;17.94;100.00;100774.94;5028628;28;21001;-75
2023/10/13 06:42:18;;;;;;;38.03;21.15;;;;;;;18.00;100.00;100770.81;5026209;28;20048;-77
2023/10/13 06:44:45;;;;;;;39.28;19.90;;;;;;;18.02;100.00;100766.97;5033197;28;20114;-76
2023/10/13 06:47:12;;;;;;;37.70;21.17;;;;;;;17.88;100.00;100753.97;5030875;28;20045;-79
2023/10/13 06:49:39;;;;;;;32.40;17.00;;;;;;;18.06;100.00;100745.94;5030698;28;20033;-75
2023/10/13 06:52:07;;;;;;;39.83;19.88;;;;;;;18.06;100.00;100741.38;5029964;28;20061;-77
2023/10/13 06:54:34;;;;;;;34.13;20.80;;;;;;;18.16;100.00;100756.69;5021024;28;20128;-78
2023/10/13 06:57:03;;;;;;;40.20;22.30;;;;;;;18.20;100.00;100740.06;5030463;28;20146;-78
2023/10/13 06:59:32;;;;;;;28.92;16.35;;;;;;;18.16;100.00;100733.25;5024985;28;20032;-76
2023/10/13 07:02:04;;;;;;;34.25;15.68;;;;;;;18.18;100.00;100725.88;5025724;28;20259;-77
2023/10/13 07:04:29;;;;;;;27.55;14.60;;;;;;;18.21;100.00;100728.25;5027189;28;20038;-77
2023/10/13 07:06:55;;;;;;;27.45;15.00;;;;;;;18.14;100.00;100729.00;5019356;28;20096;-75
2023/10/13 07:12:03;;;;;;;30.52;18.10;;;;;;;18.18;100.00;100706.13;5025257;28;20041;-76
2023/10/13 07:14:29;;;;;;;23.02;15.15;;;;;;;18.21;100.00;100716.59;5021159;28;20146;-74
2023/10/13 07:17:02;;;;;;;26.13;15.20;;;;;;;18.21;100.00;100712.06;5025862;28;20044;-76
2023/10/13 07:19:28;;;;;;;31.85;16.17;;;;;;;18.24;100.00;100709.06;5026503;28;20124;-77
2023/10/13 07:22:20;;;;;;;28.30;15.75;;;;;;;18.24;100.00;100700.97;5022283;28;20036;-76
2023/10/13 07:24:50;;;;;;;22.65;14.60;;;;;;;18.25;100.00;100709.91;5029306;28;20051;-76
2023/10/13 07:27:23;;;;;;;23.05;14.93;;;;;;;18.25;100.00;100691.00;5034123;28;20048;-75
2023/10/13 07:29:56;;;;;;;28.73;16.48;;;;;;;18.30;100.00;100684.16;5030640;28;20301;-76
2023/10/13 07:32:26;;;;;;;31.67;15.15;;;;;;;18.20;100.00;100683.38;5027765;28;20087;-76
2023/10/13 07:34:57;;;;;;;26.95;15.55;;;;;;;18.26;100.00;100680.06;5028040;28;20030;-77
2023/10/13 07:37:28;;;;;;;26.42;14.85;;;;;;;18.24;100.00;100667.72;5025771;28;20045;-76
2023/10/13 07:39:57;;;;;;;33.10;14.45;;;;;;;18.24;100.00;100665.03;5022587;28;20125;-76
2023/10/13 07:42:30;;;;;;;24.20;13.98;;;;;;;18.28;100.00;100653.78;5040634;28;20953;-76
2023/10/13 07:44:56;;;;;;;35.00;15.82;;;;;;;18.23;100.00;100641.75;5019851;28;20038;-76
2023/10/13 07:47:24;;;;;;;33.58;13.55;;;;;;;18.33;100.00;100637.97;5027754;28;20087;-77
2023/10/13 07:49:50;;;;;;;22.85;12.23;;;;;;;18.40;100.00;100608.50;5028547;28;20038;-76
2023/10/13 07:57:30;;;;;;;27.88;13.10;;;;;;;18.35;100.00;100600.00;5026828;28;20063;-76
2023/10/13 08:00:09;;;;;;;25.33;13.93;;;;;;;18.30;100.00;100596.94;5025562;28;26513;-76
2023/10/13 08:02:49;;;;;;;26.40;12.82;;;;;;;18.44;100.00;100593.69;5024915;28;20046;-75
2023/10/13 08:05:39;;;;;;;31.73;12.70;;;;;;;18.43;100.00;100585.75;5024827;28;20034;-76
2023/10/13 08:08:14;;;;;;;26.50;13.80;;;;;;;18.44;100.00;100585.59;5020517;28;20042;-75
2023/10/13 08:10:41;;;;;;;27.45;13.55;;;;;;;18.48;100.00;100580.75;5028958;28;20890;-75
2023/10/13 08:13:12;;;;;;;30.73;13.88;;;;;;;18.53;100.00;100587.38;5029702;28;20033;-76
2023/10/13 08:15:45;;;;;;;32.92;13.18;;;;;;;18.50;100.00;100573.31;5031010;28;20029;-76
2023/10/13 08:18:19;;;;;;;36.95;13.90;;;;;;;18.58;100.00;100568.84;5032420;28;20781;-76
2023/10/13 08:20:45;;;;;;;29.27;12.57;;;;;;;18.59;100.00;100562.44;5022934;28;20053;-74
2023/10/13 08:23:13;;;;;;;29.02;12.77;;;;;;;18.56;100.00;100565.44;5039409;28;20046;-77
2023/10/13 08:31:22;;;;;;;37.15;13.15;;;;;;;18.68;100.00;100566.09;5030280;28;20033;-77
2023/10/13 08:33:57;;;;;;;25.40;12.30;;;;;;;18.72;100.00;100548.53;5022684;28;20194;-77
2023/10/13 08:36:30;;;;;;;28.50;11.68;;;;;;;18.87;100.00;100538.88;5007307;28;20034;-76
2023/10/13 08:38:56;;;;;;;30.33;12.02;;;;;;;19.04;100.00;100541.69;5028188;28;20042;-75
2023/10/13 08:41:29;;;;;;;30.90;12.60;;;;;;;19.08;100.00;100537.69;5021576;28;20033;-77
2023/10/13 08:44:03;;;;;;;30.50;11.90;;;;;;;19.37;100.00;100524.63;5025658;28;20037;-75
2023/10/13 08:46:38;;;;;;;27.95;12.13;;;;;;;19.44;100.00;100514.03;5018620;28;20042;-74
2023/10/13 08:49:15;;;;;;;25.80;10.80;;;;;;;19.55;100.00;100511.03;5025766;28;20104;-76
2023/10/13 08:51:45;;;;;;;21.98;10.73;;;;;;;19.61;100.00;100498.72;5022956;28;20041;-75
2023/10/13 08:54:33;;;;;;;19.67;11.13;;;;;;;19.64;100.00;100490.28;5021732;28;20060;-75
2023/10/13 08:57:19;;;;;;;25.27;10.73;;;;;;;19.79;100.00;100490.50;5015752;28;20041;-77
2023/10/13 08:59:55;;;;;;;28.20;11.80;;;;;;;19.80;100.00;100475.97;5029770;28;20037;-77
2023/10/13 09:02:44;;;;;;;26.05;11.43;;;;;;;19.84;100.00;100471.91;5026365;28;20061;-78
2023/10/13 09:05:41;;;;;;;28.75;10.27;;;;;;;19.91;100.00;100460.25;5027449;28;20053;-77
2023/10/13 09:07:55;;;;;;;23.60;10.65;;;;;;;19.92;100.00;100450.25;5021994;28;20128;-77
2023/10/13 09:10:33;;;;;;;24.55;11.50;;;;;;;19.96;100.00;100442.66;5031074;28;20046;-77
2023/10/13 09:13:02;;;;;;;30.27;10.65;;;;;;;20.11;100.00;100430.13;5025986;28;20033;-75
2023/10/13 09:18:46;;;;;;;22.08;10.98;;;;;;;20.26;100.00;100425.72;5045070;28;20052;-76
2023/10/13 09:24:16;;;;;;;22.23;10.80;;;;;;;20.11;100.00;100420.16;5035915;28;20053;-76
2023/10/13 09:26:42;;;;;;;29.92;11.40;;;;;;;20.27;100.00;100418.44;5032086;28;20088;-74
2023/10/13 09:29:19;;;;;;;26.67;11.65;;;;;;;20.35;100.00;100422.00;5039849;28;20050;-76
2023/10/13 09:32:03;;;;;;;27.95;10.75;;;;;;;20.50;100.00;100414.06;5030499;28;20095;-76
2023/10/13 09:34:30;;;;;;;26.55;11.35;;;;;;;20.55;100.00;100413.56;5031676;28;20042;-76
2023/10/13 09:36:59;;;;;;;21.40;10.05;;;;;;;20.54;100.00;100414.56;5032749;28;20073;-76
2023/10/13 09:39:44;;;;;;;21.65;9.98;;;;;;;20.41;100.00;100410.47;5038131;28;20045;-76
2023/10/13 09:42:15;;;;;;;24.90;10.55;;;;;;;20.24;100.00;100414.25;5038596;28;20900;-75
2023/10/13 09:44:41;;;;;;;22.15;11.00;;;;;;;20.07;100.00;100405.25;5033489;28;20037;-75
2023/10/13 09:47:17;;;;;;;27.42;10.27;;;;;;;20.09;100.00;100397.84;5038712;28;20049;-75
2023/10/13 09:49:48;;;;;;;23.58;10.75;;;;;;;19.99;100.00;100393.63;5032356;28;20060;-75
2023/10/13 09:52:19;;;;;;;26.50;10.27;;;;;;;20.02;100.00;100388.69;5029378;28;20977;-75
2023/10/13 09:54:59;;;;;;;26.20;11.13;;;;;;;20.06;100.00;100386.50;5021711;28;20094;-76
2023/10/13 09:57:34;;;;;;;23.10;9.68;;;;;;;20.05;100.00;100374.81;5026963;28;20303;-77
2023/10/13 10:06:04;;;;;;;30.27;11.13;;;;;;;20.15;100.00;100374.66;5034247;28;20163;-75
2023/10/13 10:08:33;;;;;;;31.88;10.63;;;;;;;20.15;100.00;100383.59;5026561;28;20122;-75
2023/10/13 10:11:46;;;;;;;26.20;10.80;;;;;;;20.32;100.00;100383.59;5028551;28;20038;-75
2023/10/13 10:14:49;;;;;;;26.85;10.48;;;;;;;20.35;100.00;100372.41;4980391;28;20254;-74
2023/10/13 10:17:14;;;;;;;23.95;9.82;;;;;;;20.50;100.00;100365.31;4986732;28;20042;-74
2023/10/13 10:19:54;;;;;;;21.83;9.07;;;;;;;20.44;100.00;100358.69;4983857;28;20047;-75
2023/10/13 10:22:27;;;;;;;23.77;9.32;;;;;;;20.47;100.00;100351.25;4986713;28;20034;-75
2023/10/13 10:24:59;;;;;;;25.20;8.85;;;;;;;20.53;100.00;100345.13;4985320;28;20058;-76
2023/10/13 10:27:30;;;;;;;32.50;9.93;;;;;;;20.37;100.00;100343.28;4975344;28;20056;-76
2023/10/13 10:29:57;;;;;;;31.15;10.15;;;;;;;20.67;100.00;100347.97;4986719;28;20042;-75
2023/10/13 10:32:44;;;;;;;23.40;10.15;;;;;;;20.69;100.00;100340.53;4961473;28;20034;-77
2023/10/13 10:35:20;;;;;;;27.98;9.57;;;;;;;20.67;100.00;100336.28;4984784;28;20038;-76
2023/10/13 10:37:49;;;;;;;23.50;10.27;;;;;;;20.63;100.00;100327.69;4981973;28;20162;-75
2023/10/13 10:43:08;;;;;;;24.50;9.63;;;;;;;20.47;100.00;100325.00;4985401;28;20070;-76
2023/10/13 10:45:35;;;;;;;21.10;10.10;;;;;;;20.64;100.00;100317.69;4983229;28;20046;-76
2023/10/13 10:48:16;;;;;;;23.88;9.88;;;;;;;20.58;100.00;100316.53;4984238;28;20041;-75
2023/10/13 10:50:43;;;;;;;21.77;8.68;;;;;;;20.56;100.00;100313.13;5008483;28;20048;-76
2023/10/13 10:53:09;;;;;;;28.73;10.20;;;;;;;20.64;100.00;100304.97;5025291;28;20033;-76
2023/10/13 10:55:38;;;;;;;23.58;9.63;;;;;;;20.64;100.00;100302.28;5026194;28;20034;-76
2023/10/13 10:58:06;;;;;;;24.17;9.48;;;;;;;20.79;100.00;100290.69;5060149;28;20120;-75
2023/10/13 11:00:50;;;;;;;32.42;10.50;;;;;;;20.79;100.00;100277.16;5021850;28;20037;-76
2023/10/13 11:03:16;;;;;;;18.98;8.82;;;;;;;20.84;100.00;100275.59;5027094;28;20041;-76
2023/10/13 11:05:50;;;;;;;26.80;10.77;;;;;;;20.87;100.00;100263.53;5026497;28;20053;-76
2023/10/13 11:08:37;;;;;;;26.77;10.75;;;;;;;21.04;100.00;100269.72;5023528;28;20140;-74
2023/10/13 11:11:17;;;;;;;23.65;10.43;;;;;;;21.14;100.00;100251.34;5024653;28;20165;-75
2023/10/13 11:13:54;;;;;;;24.85;9.68;;;;;;;21.14;100.00;100263.03;5026214;28;20072;-76
2023/10/13 11:16:24;;;;;;;24.45;10.32;;;;;;;21.20;100.00;100259.59;5028338;28;20149;-77
2023/10/13 11:19:00;;;;;;;24.00;10.40;;;;;;;21.33;100.00;100244.59;5019661;28;20037;-74
2023/10/13 11:21:30;;;;;;;24.25;9.82;;;;;;;21.44;100.00;100255.06;5025550;28;20236;-74
2023/10/13 11:24:08;;;;;;;25.35;10.13;;;;;;;21.21;100.00;100247.72;5025320;28;20120;-76
2023/10/13 11:26:49;;;;;;;21.70;10.18;;;;;;;21.03;100.00;100249.88;5025720;28;20030;-75
2023/10/13 11:29:22;;;;;;;21.40;10.02;;;;;;;21.13;100.00;100261.31;5050083;28;20037;-75
2023/10/13 11:31:58;;;;;;;22.48;9.82;;;;;;;21.17;100.00;100259.09;5039606;28;20121;-75
2023/10/13 11:34:24;;;;;;;25.50;10.00;;;;;;;20.95;100.00;100252.66;5015925;28;20038;-76
2023/10/13 11:36:52;;;;;;;28.83;10.93;;;;;;;20.88;100.00;100244.41;5018585;28;20111;-74
2023/10/13 11:39:22;;;;;;;25.42;11.00;;;;;;;20.84;100.00;100251.19;5029288;28;20045;-74
2023/10/13 11:41:53;;;;;;;21.00;9.82;;;;;;;20.79;100.00;100250.88;5026491;28;20089;-75
2023/10/13 11:51:46;;;;;;;25.15;10.23;;;;;;;20.97;100.00;100228.91;5021518;28;20038;-75
2023/10/13 11:54:15;;;;;;;;;;;;;;;21.02;100.00;100226.50;5022211;28;20046;-77
2023/10/13 11:56:44;;;;;;;26.05;10.93;;;;;;;21.18;100.00;100220.94;5017639;28;20608;-74
2023/10/13 11:59:24;;;;;;;22.98;10.55;;;;;;;21.32;100.00;100213.94;5023957;28;20068;-77
2023/10/13 12:04:51;;;;;;;33.80;10.20;;;;;;;21.24;100.00;100186.03;5020627;28;20073;-75
2023/10/13 12:07:21;;;;;;;27.48;10.32;;;;;;;21.17;100.00;100167.75;5026735;28;20045;-76
2023/10/13 12:12:20;;;;;;;25.40;10.63;;;;;;;21.42;100.00;100191.97;5022757;28;20060;-75
2023/10/13 12:14:58;;;;;;;20.45;9.25;;;;;;;21.51;100.00;100180.03;5034805;28;20042;-75
2023/10/13 12:17:31;;;;;;;33.28;11.82;;;;;;;21.73;100.00;100181.81;5018906;28;20042;-77
2023/10/13 12:19:58;;;;;;;21.35;9.95;;;;;;;21.85;100.00;100162.38;5014674;28;20034;-74
2023/10/13 12:22:28;;;;;;;23.05;10.90;;;;;;;21.87;100.00;100173.88;5027070;28;20139;-75
2023/10/13 12:24:55;;;;;;;27.20;10.25;;;;;;;22.06;100.00;100159.75;5020668;28;20041;-75
2023/10/13 12:27:23;;;;;;;30.23;10.18;;;;;;;22.07;100.00;100160.59;5025982;28;20068;-77
2023/10/13 12:29:51;;;;;;;34.80;10.35;;;;;;;22.07;100.00;100155.16;5024686;28;20097;-76
2023/10/13 12:32:22;;;;;;;20.63;9.40;;;;;;;;;;5026152;28;20038;-75
2023/10/13 12:51:20;;;;;;;26.08;10.32;;;;;;;22.14;100.00;100158.81;5029692;28;20037;-74
2023/10/13 12:53:52;;;;;;;25.77;10.20;;;;;;;22.23;100.00;100163.13;5030919;28;20045;-74
2023/10/13 12:56:25;;;;;;;25.63;9.60;;;;;;;22.22;100.00;100150.56;5028285;28;20042;-75
2023/10/13 12:58:52;;;;;;;35.80;10.45;;;;;;;22.08;100.00;100156.81;5029273;28;20048;-75
2023/10/13 13:01:22;;;;;;;35.38;10.20;;;;;;;22.03;100.00;100154.69;5033101;28;20040;-75
2023/10/13 13:03:50;;;;;;;26.30;9.35;;;;;;;21.97;100.00;100150.84;5026720;28;20038;-75
2023/10/13 13:06:17;;;;;;;26.73;9.82;;;;;;;21.88;100.00;100149.25;5053017;28;21034;-74
2023/10/13 13:08:44;;;;;;;33.17;10.48;;;;;;;21.91;100.00;100150.75;5031157;28;20218;-74
2023/10/13 13:11:10;;;;;;;25.02;9.52;;;;;;;22.04;100.00;100150.94;5026576;28;20045;-76
2023/10/13 13:13:36;;;;;;;33.60;9.85;;;;;;;22.12;100.00;100150.03;5029933;28;20051;-75
2023/10/13 13:16:03;;;;;;;23.23;9.73;;;;;;;22.08;100.00;100151.41;5023601;28;20103;-77
2023/10/13 13:18:28;;;;;;;23.17;10.10;;;;;;;22.15;100.00;100146.94;5027195;28;20038;-74
2023/10/13 13:20:54;;;;;;;37.97;10.43;;;;;;;22.15;100.00;100146.94;5030736;28;20041;-75
2023/10/13 13:23:21;;;;;;;35.67;10.75;;;;;;;22.27;100.00;100141.84;5033164;28;20041;-74
2023/10/13 13:25:47;;;;;;;21.00;9.05;;;;;;;22.20;100.00;100148.06;5030386;28;20164;-75
2023/10/13 13:28:13;;;;;;;27.05;10.23;;;;;;;22.09;100.00;100148.50;5029291;28;20049;-75
2023/10/13 13:30:41;;;;;;;32.55;10.50;;;;;;;21.83;100.00;100148.97;5024771;28;20033;-75
2023/10/13 13:33:12;;;;;;;32.30;9.55;;;;;;;21.88;100.00;100141.09;5032114;28;20033;-75
2023/10/13 13:35:43;;;;;;;28.17;9.30;;;;;;;21.91;100.00;100142.63;5025218;28;20026;-75
2023/10/13 13:38:30;;;;;;;27.52;10.57;;;;;;;21.94;100.00;100142.25;5025592;28;20396;-75
2023/10/13 13:40:55;;;;;;;23.08;8.55;;;;;;;21.90;100.00;100136.34;5024095;28;20060;-75
2023/10/13 13:43:50;;;;;;;28.75;9.75;;;;;;;21.94;100.00;100145.81;5020256;28;20042;-75
2023/10/13 13:46:32;;;;;;;26.17;8.98;;;;;;;21.96;100.00;100137.47;5032329;28;20081;-74
2023/10/13 13:48:59;;;;;;;;;;;;;;;21.93;100.00;100129.69;5027155;28;20097;-74
2023/10/13 13:51:27;;;;;;;23.35;8.20;;;;;;;22.03;100.00;100134.81;5028730;28;19956;-75
2023/10/13 13:53:58;;;;;;;33.30;8.85;;;;;;;21.97;100.00;100131.84;5026971;28;20037;-74
2023/10/13 13:56:28;;;;;;;18.60;7.90;;;;;;;21.90;100.00;100130.09;5026835;28;20081;-75
2023/10/13 13:58:58;;;;;;;27.30;9.00;;;;;;;21.82;100.00;100133.72;5012386;28;20088;-75
2023/10/13 14:01:28;;;;;;;25.85;8.50;;;;;;;21.89;100.00;100137.38;5026584;28;20093;-75
2023/10/13 14:03:56;;;;;;;24.52;8.00;;;;;;;21.79;100.00;100111.53;5025860;28;20120;-75
2023/10/13 14:06:24;;;;;;;26.70;7.95;;;;;;;21.69;100.00;100128.13;5025815;28;20077;-73
2023/10/13 14:08:54;;;;;;;27.70;8.85;;;;;;;21.68;100.00;100131.84;5034199;28;20045;-75
2023/10/13 14:14:11;;;;;;;27.83;7.88;;;;;;;21.84;100.00;100128.09;5029994;28;20115;-76
2023/10/13 14:16:47;;;;;;;;;;;;;;;21.94;100.00;100112.38;5032929;28;21189;-75
2023/10/13 14:19:26;;;;;;;29.70;8.32;;;;;;;21.94;100.00;100118.66;5029527;28;19948;-74
2023/10/13 14:21:53;;;;;;;20.05;7.68;;;;;;;21.97;100.00;100115.53;5027300;28;20030;-74
2023/10/13 14:24:28;;;;;;;19.50;6.80;;;;;;;21.94;100.00;100110.50;5028936;28;20052;-74
2023/10/13 14:27:09;;;;;;;23.85;7.75;;;;;;;21.98;100.00;100087.34;5030940;28;20037;-74